sensor_id;sensor_type;location;lat;lon;timestamp;pressure;altitude;pressure_sealevel;temperature;humidity
30554;BME280;17335;50.720;7.452;2024-01-27T00:00:10;101062.63;;;3.85;100.00
30554;BME280;17335;50.720;7.452;2024-01-27T00:02:37;101066.94;;;3.88;100.00
30554;BME280;17335;50.720;7.452;2024-01-27T00:05:03;101063.50;;;3.86;100.00
30554;BME280;17335;50.720;7.452;2024-01-27T00:07:30;101065.22;;;3.87;100.00
30554;BME280;17335;50.720;7.452;2024-01-27T00:09:57;101066.94;;;3.88;100.00
30554;BME280;17335;50.720;7.452;2024-01-27T00:12:25;101069.66;;;3.86;100.00
30554;BME280;17335;50.720;7.452;2024-01-27T00:14:52;101061.41;;;3.70;100.00
30554;BME280;17335;50.720;7.452;2024-01-27T00:17:18;101058.06;;;3.65;100.00
30554;BME280;17335;50.720;7.452;2024-01-27T00:19:53;101067.47;;;3.50;100.00
30554;BME280;17335;50.720;7.452;2024-01-27T00:22:20;101069.50;;;3.44;100.00
30554;BME280;17335;50.720;7.452;2024-01-27T00:24:47;101069.38;;;3.47;100.00
30554;BME280;17335;50.720;7.452;2024-01-27T00:27:13;101068.75;;;3.40;100.00
30554;BME280;17335;50.720;7.452;2024-01-27T00:29:40;101070.31;;;3.46;100.00
30554;BME280;17335;50.720;7.452;2024-01-27T00:32:06;101070.47;;;3.41;100.00
30554;BME280;17335;50.720;7.452;2024-01-27T00:34:33;101074.00;;;3.42;100.00
30554;BME280;17335;50.720;7.452;2024-01-27T00:36:59;101071.34;;;3.42;100.00
30554;BME280;17335;50.720;7.452;2024-01-27T00:39:26;101075.69;;;3.44;100.00
30554;BME280;17335;50.720;7.452;2024-01-27T00:41:52;101076.75;;;3.38;100.00
30554;BME280;17335;50.720;7.452;2024-01-27T00:44:21;101077.66;;;3.39;100.00
30554;BME280;17335;50.720;7.452;2024-01-27T00:46:47;101072.44;;;3.36;100.00
30554;BME280;17335;50.720;7.452;2024-01-27T00:49:14;101072.50;;;3.34;100.00
30554;BME280;17335;50.720;7.452;2024-01-27T00:51:41;101073.13;;;3.41;100.00
30554;BME280;17335;50.720;7.452;2024-01-27T00:54:07;101079.66;;;3.32;100.00
30554;BME280;17335;50.720;7.452;2024-01-27T00:56:34;101084.97;;;3.32;100.00
30554;BME280;17335;50.720;7.452;2024-01-27T00:59:00;101087.81;;;3.26;100.00
30554;BME280;17335;50.720;7.452;2024-01-27T01:01:27;101087.66;;;3.31;100.00
30554;BME280;17335;50.720;7.452;2024-01-27T01:03:53;101097.47;;;3.29;100.00
30554;BME280;17335;50.720;7.452;2024-01-27T01:06:20;101092.44;;;3.21;100.00
30554;BME280;17335;50.720;7.452;2024-01-27T01:08:46;101097.13;;;3.13;100.00
30554;BME280;17335;50.720;7.452;2024-01-27T01:11:13;101109.69;;;3.08;100.00
30554;BME280;17335;50.720;7.452;2024-01-27T01:13:41;101097.81;;;2.94;100.00
30554;BME280;17335;50.720;7.452;2024-01-27T01:16:07;101112.28;;;2.84;100.00
30554;BME280;17335;50.720;7.452;2024-01-27T01:18:34;101102.03;;;2.73;100.00
30554;BME280;17335;50.720;7.452;2024-01-27T01:21:01;101102.41;;;2.62;100.00
30554;BME280;17335;50.720;7.452;2024-01-27T01:23:29;101107.97;;;2.55;100.00
30554;BME280;17335;50.720;7.452;2024-01-27T01:25:55;101108.28;;;2.44;100.00
30554;BME280;17335;50.720;7.452;2024-01-27T01:28:23;101112.22;;;2.32;100.00
30554;BME280;17335;50.720;7.452;2024-01-27T01:30:49;101115.31;;;2.18;100.00
30554;BME280;17335;50.720;7.452;2024-01-27T01:33:16;101111.97;;;2.12;100.00
30554;BME280;17335;50.720;7.452;2024-01-27T01:35:43;101118.53;;;2.00;100.00
30554;BME280;17335;50.720;7.452;2024-01-27T01:38:10;101122.06;;;1.99;100.00
30554;BME280;17335;50.720;7.452;2024-01-27T01:40:37;101122.44;;;1.86;100.00
30554;BME280;17335;50.720;7.452;2024-01-27T01:43:09;101124.34;;;1.81;100.00
30554;BME280;17335;50.720;7.452;2024-01-27T01:45:36;101118.50;;;1.70;100.00
30554;BME280;17335;50.720;7.452;2024-01-27T01:48:03;101121.25;;;1.67;100.00
30554;BME280;17335;50.720;7.452;2024-01-27T01:50:30;101114.50;;;1.57;100.00
30554;BME280;17335;50.720;7.452;2024-01-27T01:52:57;101116.53;;;1.47;100.00
30554;BME280;17335;50.720;7.452;2024-01-27T01:55:24;101119.31;;;1.41;100.00
30554;BME280;17335;50.720;7.452;2024-01-27T01:57:51;101121.19;;;1.37;100.00
30554;BME280;17335;50.720;7.452;2024-01-27T02:02:47;101126.00;;;1.23;100.00
30554;BME280;17335;50.720;7.452;2024-01-27T02:05:14;101118.97;;;1.22;100.00
30554;BME280;17335;50.720;7.452;2024-01-27T02:07:41;101117.41;;;1.15;100.00
30554;BME280;17335;50.720;7.452;2024-01-27T02:10:14;101119.28;;;1.09;100.00
30554;BME280;17335;50.720;7.452;2024-01-27T02:12:43;101123.88;;;1.03;100.00
30554;BME280;17335;50.720;7.452;2024-01-27T02:15:11;101119.66;;;0.96;100.00
30554;BME280;17335;50.720;7.452;2024-01-27T02:17:42;101126.91;;;0.87;100.00
30554;BME280;17335;50.720;7.452;2024-01-27T02:20:09;101127.03;;;0.84;100.00
30554;BME280;17335;50.720;7.452;2024-01-27T02:22:36;101131.72;;;0.71;100.00
30554;BME280;17335;50.720;7.452;2024-01-27T02:25:03;101128.38;;;0.65;100.00
30554;BME280;17335;50.720;7.452;2024-01-27T02:27:30;101129.19;;;0.67;100.00
30554;BME280;17335;50.720;7.452;2024-01-27T02:29:56;101138.00;;;0.67;100.00
30554;BME280;17335;50.720;7.452;2024-01-27T02:32:23;101135.41;;;0.66;100.00
30554;BME280;17335;50.720;7.452;2024-01-27T02:34:49;101143.44;;;0.61;100.00
30554;BME280;17335;50.720;7.452;2024-01-27T02:37:16;101134.75;;;0.56;100.00
30554;BME280;17335;50.720;7.452;2024-01-27T02:39:42;101135.84;;;0.47;100.00
30554;BME280;17335;50.720;7.452;2024-01-27T02:42:08;101147.44;;;0.42;100.00
30554;BME280;17335;50.720;7.452;2024-01-27T02:44:35;101152.00;;;0.33;100.00
30554;BME280;17335;50.720;7.452;2024-01-27T02:47:01;101141.69;;;0.23;100.00
30554;BME280;17335;50.720;7.452;2024-01-27T02:49:28;101137.34;;;0.20;100.00
30554;BME280;17335;50.720;7.452;2024-01-27T02:51:54;101140.94;;;0.17;100.00
30554;BME280;17335;50.720;7.452;2024-01-27T02:54:21;101136.59;;;0.13;100.00
30554;BME280;17335;50.720;7.452;2024-01-27T02:56:47;101130.69;;;0.04;100.00
30554;BME280;17335;50.720;7.452;2024-01-27T02:59:14;101128.09;;;0.01;100.00
30554;BME280;17335;50.720;7.452;2024-01-27T03:01:40;101143.16;;;-0.03;100.00
30554;BME280;17335;50.720;7.452;2024-01-27T03:04:07;101135.09;;;0.02;100.00
30554;BME280;17335;50.720;7.452;2024-01-27T03:06:33;101152.00;;;-0.07;100.00
30554;BME280;17335;50.720;7.452;2024-01-27T03:09:00;101140.69;;;-0.12;100.00
30554;BME280;17335;50.720;7.452;2024-01-27T03:11:26;101146.09;;;-0.17;100.00
30554;BME280;17335;50.720;7.452;2024-01-27T03:13:53;101150.56;;;-0.21;100.00
30554;BME280;17335;50.720;7.452;2024-01-27T03:16:19;101157.69;;;-0.26;100.00
30554;BME280;17335;50.720;7.452;2024-01-27T03:18:46;101154.19;;;-0.28;100.00
30554;BME280;17335;50.720;7.452;2024-01-27T03:21:13;101155.19;;;-0.33;100.00
30554;BME280;17335;50.720;7.452;2024-01-27T03:23:39;101144.81;;;-0.41;100.00
30554;BME280;17335;50.720;7.452;2024-01-27T03:26:06;101144.00;;;-0.45;100.00
30554;BME280;17335;50.720;7.452;2024-01-27T03:28:32;101152.88;;;-0.49;100.00
30554;BME280;17335;50.720;7.452;2024-01-27T03:30:59;101161.59;;;-0.45;100.00
30554;BME280;17335;50.720;7.452;2024-01-27T03:33:26;101164.34;;;-0.50;100.00
30554;BME280;17335;50.720;7.452;2024-01-27T03:35:56;101168.75;;;-0.52;100.00
30554;BME280;17335;50.720;7.452;2024-01-27T03:38:22;101167.06;;;-0.54;100.00
30554;BME280;17335;50.720;7.452;2024-01-27T03:40:49;101168.84;;;-0.55;100.00
30554;BME280;17335;50.720;7.452;2024-01-27T03:43:15;101157.91;;;-0.36;100.00
30554;BME280;17335;50.720;7.452;2024-01-27T03:45:42;101154.66;;;-0.49;100.00
30554;BME280;17335;50.720;7.452;2024-01-27T03:48:08;101156.53;;;-0.56;100.00
30554;BME280;17335;50.720;7.452;2024-01-27T03:50:35;101162.00;;;-0.67;100.00
30554;BME280;17335;50.720;7.452;2024-01-27T03:53:01;101168.19;;;-0.69;100.00
30554;BME280;17335;50.720;7.452;2024-01-27T03:55:28;101162.09;;;-0.71;100.00
30554;BME280;17335;50.720;7.452;2024-01-27T03:57:54;101165.63;;;-0.74;100.00
30554;BME280;17335;50.720;7.452;2024-01-27T04:00:21;101170.06;;;-0.74;100.00
30554;BME280;17335;50.720;7.452;2024-01-27T04:02:47;101169.13;;;-0.70;100.00
30554;BME280;17335;50.720;7.452;2024-01-27T04:05:14;101175.25;;;-0.70;100.00
30554;BME280;17335;50.720;7.452;2024-01-27T04:07:41;101168.28;;;-0.74;100.00
30554;BME280;17335;50.720;7.452;2024-01-27T04:10:07;101183.25;;;-0.74;100.00
30554;BME280;17335;50.720;7.452;2024-01-27T04:12:34;101184.09;;;-0.74;100.00
30554;BME280;17335;50.720;7.452;2024-01-27T04:15:00;101186.00;;;-0.81;100.00
30554;BME280;17335;50.720;7.452;2024-01-27T04:17:27;101196.47;;;-0.78;100.00
30554;BME280;17335;50.720;7.452;2024-01-27T04:19:53;101197.34;;;-0.76;100.00
30554;BME280;17335;50.720;7.452;2024-01-27T04:22:20;101190.38;;;-0.80;100.00
30554;BME280;17335;50.720;7.452;2024-01-27T04:24:46;101186.09;;;-0.87;100.00
30554;BME280;17335;50.720;7.452;2024-01-27T04:27:13;101186.94;;;-0.85;100.00
30554;BME280;17335;50.720;7.452;2024-01-27T04:29:39;101191.34;;;-0.85;100.00
30554;BME280;17335;50.720;7.452;2024-01-27T04:32:06;101190.53;;;-0.89;100.00
30554;BME280;17335;50.720;7.452;2024-01-27T04:34:32;101203.75;;;-0.90;100.00
30554;BME280;17335;50.720;7.452;2024-01-27T04:36:59;101205.59;;;-0.97;100.00
30554;BME280;17335;50.720;7.452;2024-01-27T04:39:25;101209.06;;;-0.93;100.00
30554;BME280;17335;50.720;7.452;2024-01-27T04:41:52;101210.78;;;-0.91;100.00
30554;BME280;17335;50.720;7.452;2024-01-27T04:44:19;101208.28;;;-1.00;100.00
30554;BME280;17335;50.720;7.452;2024-01-27T04:46:46;101208.44;;;-1.09;100.00
30554;BME280;17335;50.720;7.452;2024-01-27T04:49:14;101218.06;;;-1.08;100.00
30554;BME280;17335;50.720;7.452;2024-01-27T04:51:41;101222.53;;;-1.12;100.00
30554;BME280;17335;50.720;7.452;2024-01-27T04:54:08;101219.06;;;-1.14;100.00
30554;BME280;17335;50.720;7.452;2024-01-27T04:56:35;101217.28;;;-1.14;100.00
30554;BME280;17335;50.720;7.452;2024-01-27T04:59:02;101215.53;;;-1.11;100.00
30554;BME280;17335;50.720;7.452;2024-01-27T05:01:30;101216.38;;;-1.11;100.00
30554;BME280;17335;50.720;7.452;2024-01-27T05:03:56;101206.81;;;-1.17;100.00
30554;BME280;17335;50.720;7.452;2024-01-27T05:06:23;101199.84;;;-1.21;100.00
30554;BME280;17335;50.720;7.452;2024-01-27T05:08:49;101212.16;;;-1.21;100.00
30554;BME280;17335;50.720;7.452;2024-01-27T05:11:25;101213.00;;;-1.21;100.00
30554;BME280;17335;50.720;7.452;2024-01-27T05:13:51;101203.31;;;-1.19;100.00
30554;BME280;17335;50.720;7.452;2024-01-27T05:16:18;101212.09;;;-1.17;100.00
30554;BME280;17335;50.720;7.452;2024-01-27T05:18:44;101201.59;;;-1.20;100.00
30554;BME280;17335;50.720;7.452;2024-01-27T05:21:11;101205.16;;;-1.24;100.00
30554;BME280;17335;50.720;7.452;2024-01-27T05:23:38;101205.09;;;-1.21;100.00
30554;BME280;17335;50.720;7.452;2024-01-27T05:26:05;101205.91;;;-1.17;100.00
30554;BME280;17335;50.720;7.452;2024-01-27T05:28:32;101217.38;;;-1.18;100.00
30554;BME280;17335;50.720;7.452;2024-01-27T05:30:59;101208.53;;;-1.16;100.00
30554;BME280;17335;50.720;7.452;2024-01-27T05:33:26;101206.81;;;-1.17;100.00
30554;BME280;17335;50.720;7.452;2024-01-27T05:35:52;101211.31;;;-1.25;100.00
30554;BME280;17335;50.720;7.452;2024-01-27T05:38:19;101213.09;;;-1.25;100.00
30554;BME280;17335;50.720;7.452;2024-01-27T05:40:46;101208.69;;;-1.25;100.00
30554;BME280;17335;50.720;7.452;2024-01-27T05:43:12;101210.50;;;-1.27;100.00
30554;BME280;17335;50.720;7.452;2024-01-27T05:45:39;101214.94;;;-1.30;100.00
30554;BME280;17335;50.720;7.452;2024-01-27T05:48:05;101210.59;;;-1.36;100.00
30554;BME280;17335;50.720;7.452;2024-01-27T05:50:32;101210.59;;;-1.36;100.00
30554;BME280;17335;50.720;7.452;2024-01-27T05:53:00;101216.78;;;-1.36;100.00
30554;BME280;17335;50.720;7.452;2024-01-27T05:55:27;101212.41;;;-1.38;100.00
30554;BME280;17335;50.720;7.452;2024-01-27T05:57:53;101220.31;;;-1.40;100.00
30554;BME280;17335;50.720;7.452;2024-01-27T06:00:21;101213.25;;;-1.38;100.00
30554;BME280;17335;50.720;7.452;2024-01-27T06:02:48;101217.66;;;-1.37;100.00
30554;BME280;17335;50.720;7.452;2024-01-27T06:05:15;101216.81;;;-1.39;100.00
30554;BME280;17335;50.720;7.452;2024-01-27T06:07:42;101215.88;;;-1.36;100.00
30554;BME280;17335;50.720;7.452;2024-01-27T06:10:09;101224.47;;;-1.23;100.00
30554;BME280;17335;50.720;7.452;2024-01-27T06:12:37;101226.22;;;-1.24;100.00
30554;BME280;17335;50.720;7.452;2024-01-27T06:15:04;101219.97;;;-1.15;100.00
30554;BME280;17335;50.720;7.452;2024-01-27T06:17:32;101226.16;;;-1.19;100.00
30554;BME280;17335;50.720;7.452;2024-01-27T06:19:59;101224.47;;;-1.22;100.00
30554;BME280;17335;50.720;7.452;2024-01-27T06:22:26;101222.50;;;-1.10;100.00
30554;BME280;17335;50.720;7.452;2024-01-27T06:24:52;101224.34;;;-1.16;100.00
30554;BME280;17335;50.720;7.452;2024-01-27T06:27:18;101227.09;;;-1.20;100.00
30554;BME280;17335;50.720;7.452;2024-01-27T06:29:45;101226.22;;;-1.24;100.00
30554;BME280;17335;50.720;7.452;2024-01-27T06:32:11;101230.66;;;-1.26;100.00
30554;BME280;17335;50.720;7.452;2024-01-27T06:34:39;101239.50;;;-1.30;100.00
30554;BME280;17335;50.720;7.452;2024-01-27T06:37:06;101234.19;;;-1.27;100.00
30554;BME280;17335;50.720;7.452;2024-01-27T06:39:32;101238.59;;;-1.29;100.00
30554;BME280;17335;50.720;7.452;2024-01-27T06:41:59;101234.06;;;-1.19;100.00
30554;BME280;17335;50.720;7.452;2024-01-27T06:44:25;101238.53;;;-1.23;100.00
30554;BME280;17335;50.720;7.452;2024-01-27T06:46:52;101242.97;;;-1.26;100.00
30554;BME280;17335;50.720;7.452;2024-01-27T06:49:18;101237.81;;;-1.34;100.00
30554;BME280;17335;50.720;7.452;2024-01-27T06:51:46;101250.13;;;-1.35;100.00
30554;BME280;17335;50.720;7.452;2024-01-27T06:54:12;101256.19;;;-1.29;100.00
30554;BME280;17335;50.720;7.452;2024-01-27T06:56:39;101255.19;;;-1.22;100.00
30554;BME280;17335;50.720;7.452;2024-01-27T06:59:05;101265.72;;;-1.21;100.00
30554;BME280;17335;50.720;7.452;2024-01-27T07:01:31;101257.81;;;-1.21;100.00
30554;BME280;17335;50.720;7.452;2024-01-27T07:03:58;101249.03;;;-1.20;100.00
30554;BME280;17335;50.720;7.452;2024-01-27T07:06:24;101267.38;;;-1.14;100.00
30554;BME280;17335;50.720;7.452;2024-01-27T07:08:51;101272.69;;;-1.15;100.00
30554;BME280;17335;50.720;7.452;2024-01-27T07:11:18;101273.59;;;-1.18;100.00
30554;BME280;17335;50.720;7.452;2024-01-27T07:13:44;101279.56;;;-1.05;100.00
30554;BME280;17335;50.720;7.452;2024-01-27T07:16:11;101275.22;;;-1.10;100.00
30554;BME280;17335;50.720;7.452;2024-01-27T07:18:37;101273.63;;;-1.21;100.00
30554;BME280;17335;50.720;7.452;2024-01-27T07:21:04;101282.34;;;-1.16;100.00
30554;BME280;17335;50.720;7.452;2024-01-27T07:23:34;101278.84;;;-1.18;100.00
30554;BME280;17335;50.720;7.452;2024-01-27T07:26:01;101295.63;;;-1.22;100.00
30554;BME280;17335;50.720;7.452;2024-01-27T07:28:29;101291.22;;;-1.23;100.00
30554;BME280;17335;50.720;7.452;2024-01-27T07:30:56;101282.44;;;-1.22;100.00
30554;BME280;17335;50.720;7.452;2024-01-27T07:33:22;101291.03;;;-1.10;100.00
30554;BME280;17335;50.720;7.452;2024-01-27T07:35:49;101284.88;;;-1.09;100.00
30554;BME280;17335;50.720;7.452;2024-01-27T07:38:16;101268.28;;;-1.15;100.00
30554;BME280;17335;50.720;7.452;2024-01-27T07:40:42;101275.28;;;-1.14;100.00
30554;BME280;17335;50.720;7.452;2024-01-27T07:43:09;101269.72;;;-0.95;100.00
30554;BME280;17335;50.720;7.452;2024-01-27T07:45:35;101283.88;;;-1.01;100.00
30554;BME280;17335;50.720;7.452;2024-01-27T07:48:02;101279.56;;;-1.05;100.00
30554;BME280;17335;50.720;7.452;2024-01-27T07:50:30;101284.69;;;-0.96;100.00
30554;BME280;17335;50.720;7.452;2024-01-27T07:52:57;101288.78;;;-0.79;100.00
30554;BME280;17335;50.720;7.452;2024-01-27T07:55:23;101277.50;;;-0.86;100.00
30554;BME280;17335;50.720;7.452;2024-01-27T07:57:50;101276.59;;;-0.85;100.00
30554;BME280;17335;50.720;7.452;2024-01-27T08:00:17;101262.50;;;-0.82;100.00
30554;BME280;17335;50.720;7.452;2024-01-27T08:02:43;101258.00;;;-0.76;100.00
30554;BME280;17335;50.720;7.452;2024-01-27T08:05:10;101265.03;;;-0.78;100.00
30554;BME280;17335;50.720;7.452;2024-01-27T08:07:36;101263.38;;;-0.82;100.00
30554;BME280;17335;50.720;7.452;2024-01-27T08:10:03;101267.69;;;-0.78;100.00
30554;BME280;17335;50.720;7.452;2024-01-27T08:12:30;101269.47;;;-0.80;100.00
30554;BME280;17335;50.720;7.452;2024-01-27T08:14:57;101259.91;;;-0.85;100.00
30554;BME280;17335;50.720;7.452;2024-01-27T08:17:24;101257.09;;;-0.74;100.00
30554;BME280;17335;50.720;7.452;2024-01-27T08:19:51;101260.66;;;-0.77;100.00
30554;BME280;17335;50.720;7.452;2024-01-27T08:22:17;101265.84;;;-0.72;100.00
30554;BME280;17335;50.720;7.452;2024-01-27T08:24:44;101271.91;;;-0.67;100.00
30554;BME280;17335;50.720;7.452;2024-01-27T08:27:10;101271.84;;;-0.63;100.00
30554;BME280;17335;50.720;7.452;2024-01-27T08:29:37;101262.91;;;-0.55;100.00
30554;BME280;17335;50.720;7.452;2024-01-27T08:32:04;101277.72;;;-0.47;100.00
30554;BME280;17335;50.720;7.452;2024-01-27T08:34:31;101282.88;;;-0.41;100.00
30554;BME280;17335;50.720;7.452;2024-01-27T08:37:00;101282.72;;;-0.31;100.00
30554;BME280;17335;50.720;7.452;2024-01-27T08:39:26;101290.47;;;-0.22;100.00
30554;BME280;17335;50.720;7.452;2024-01-27T08:41:53;101287.72;;;-0.16;100.00
30554;BME280;17335;50.720;7.452;2024-01-27T08:44:19;101295.59;;;-0.13;100.00
30554;BME280;17335;50.720;7.452;2024-01-27T08:46:46;101291.97;;;-0.09;100.00
30554;BME280;17335;50.720;7.452;2024-01-27T08:49:13;101293.75;;;-0.09;100.00
30554;BME280;17335;50.720;7.452;2024-01-27T08:51:40;101302.69;;;-0.16;100.00
30554;BME280;17335;50.720;7.452;2024-01-27T08:54:06;101296.44;;;-0.12;100.00
30554;BME280;17335;50.720;7.452;2024-01-27T08:56:33;101296.38;;;-0.09;100.00
30554;BME280;17335;50.720;7.452;2024-01-27T08:58:59;101289.28;;;-0.06;100.00
30554;BME280;17335;50.720;7.452;2024-01-27T09:01:26;101300.69;;;-0.04;100.00
30554;BME280;17335;50.720;7.452;2024-01-27T09:03:52;101291.69;;;0.05;100.00
30554;BME280;17335;50.720;7.452;2024-01-27T09:06:19;101299.47;;;0.14;100.00
30554;BME280;17335;50.720;7.452;2024-01-27T09:08:45;101299.25;;;0.25;100.00
30554;BME280;17335;50.720;7.452;2024-01-27T09:11:12;101297.31;;;0.33;100.00
30554;BME280;17335;50.720;7.452;2024-01-27T09:13:39;101303.38;;;0.39;100.00
30554;BME280;17335;50.720;7.452;2024-01-27T09:16:05;101297.06;;;0.46;100.00
30554;BME280;17335;50.720;7.452;2024-01-27T09:18:32;101292.34;;;0.60;100.00
30554;BME280;17335;50.720;7.452;2024-01-27T09:20:59;101292.75;;;0.82;100.00
30554;BME280;17335;50.720;7.452;2024-01-27T09:23:25;101288.81;;;1.00;100.00
30554;BME280;17335;50.720;7.452;2024-01-27T09:25:52;101281.56;;;1.08;100.00
30554;BME280;17335;50.720;7.452;2024-01-27T09:28:18;101274.44;;;1.12;100.00
30554;BME280;17335;50.720;7.452;2024-01-27T09:30:45;101282.22;;;1.18;100.00
30554;BME280;17335;50.720;7.452;2024-01-27T09:33:12;101276.78;;;1.24;100.00
30554;BME280;17335;50.720;7.452;2024-01-27T09:35:38;101283.72;;;1.28;100.00
30554;BME280;17335;50.720;7.452;2024-01-27T09:38:05;101274.69;;;1.37;100.00
30554;BME280;17335;50.720;7.452;2024-01-27T09:40:35;101278.69;;;1.54;100.00
30554;BME280;17335;50.720;7.452;2024-01-27T09:43:02;101273.41;;;1.54;100.00
30554;BME280;17335;50.720;7.452;2024-01-27T09:45:28;101282.78;;;1.65;100.00
30554;BME280;17335;50.720;7.452;2024-01-27T09:47:59;101289.63;;;1.74;100.00
30554;BME280;17335;50.720;7.452;2024-01-27T09:50:26;101285.06;;;1.79;100.00
30554;BME280;17335;50.720;7.452;2024-01-27T09:52:54;101289.38;;;1.83;100.00
30554;BME280;17335;50.720;7.452;2024-01-27T09:55:20;101288.25;;;1.92;100.00
30554;BME280;17335;50.720;7.452;2024-01-27T09:57:48;101288.81;;;2.05;100.00
30554;BME280;17335;50.720;7.452;2024-01-27T10:00:14;101289.50;;;2.12;100.00
30554;BME280;17335;50.720;7.452;2024-01-27T10:02:45;101289.81;;;2.32;100.00
30554;BME280;17335;50.720;7.452;2024-01-27T10:05:13;101287.03;;;2.35;100.00
30554;BME280;17335;50.720;7.452;2024-01-27T10:07:39;101274.44;;;2.43;100.00
30554;BME280;17335;50.720;7.452;2024-01-27T10:10:06;101272.47;;;2.50;100.00
30554;BME280;17335;50.720;7.452;2024-01-27T10:12:41;101265.09;;;2.61;100.00
30554;BME280;17335;50.720;7.452;2024-01-27T10:15:21;101264.97;;;2.65;100.00
30554;BME280;17335;50.720;7.452;2024-01-27T10:17:48;101258.75;;;2.66;100.00
30554;BME280;17335;50.720;7.452;2024-01-27T10:20:15;101268.25;;;2.73;100.00
30554;BME280;17335;50.720;7.452;2024-01-27T10:22:45;101249.50;;;2.79;100.00
30554;BME280;17335;50.720;7.452;2024-01-27T10:25:12;101259.06;;;2.85;100.00
30554;BME280;17335;50.720;7.452;2024-01-27T10:27:39;101260.53;;;2.93;100.00
30554;BME280;17335;50.720;7.452;2024-01-27T10:30:15;101258.88;;;2.91;100.00
30554;BME280;17335;50.720;7.452;2024-01-27T10:32:42;101260.34;;;2.99;100.00
30554;BME280;17335;50.720;7.452;2024-01-27T10:35:08;101265.66;;;2.99;100.00
30554;BME280;17335;50.720;7.452;2024-01-27T10:37:35;101272.00;;;3.22;100.00
30554;BME280;17335;50.720;7.452;2024-01-27T10:40:02;101268.13;;;3.32;100.00
30554;BME280;17335;50.720;7.452;2024-01-27T10:42:29;101276.09;;;3.32;100.00
30554;BME280;17335;50.720;7.452;2024-01-27T10:45:00;101273.22;;;3.38;100.00
30554;BME280;17335;50.720;7.452;2024-01-27T10:47:27;101285.41;;;3.46;100.00
30554;BME280;17335;50.720;7.452;2024-01-27T10:49:56;101291.16;;;3.59;100.00
30554;BME280;17335;50.720;7.452;2024-01-27T10:52:25;101284.16;;;3.56;100.00
30554;BME280;17335;50.720;7.452;2024-01-27T10:54:58;101286.41;;;3.68;100.00
30554;BME280;17335;50.720;7.452;2024-01-27T10:57:26;101282.50;;;3.79;100.00
30554;BME280;17335;50.720;7.452;2024-01-27T10:59:55;101287.56;;;3.85;100.00
30554;BME280;17335;50.720;7.452;2024-01-27T11:02:22;101273.03;;;3.95;100.00
30554;BME280;17335;50.720;7.452;2024-01-27T11:04:50;101273.84;;;3.97;100.00
30554;BME280;17335;50.720;7.452;2024-01-27T11:07:19;101273.00;;;3.97;100.00
30554;BME280;17335;50.720;7.452;2024-01-27T11:09:46;101272.59;;;4.07;100.00
30554;BME280;17335;50.720;7.452;2024-01-27T11:12:14;101272.53;;;4.09;100.00
30554;BME280;17335;50.720;7.452;2024-01-27T11:14:41;101264.25;;;4.18;100.00
30554;BME280;17335;50.720;7.452;2024-01-27T11:17:08;101271.13;;;4.24;100.00
30554;BME280;17335;50.720;7.452;2024-01-27T11:19:35;101267.19;;;4.34;100.00
30554;BME280;17335;50.720;7.452;2024-01-27T11:22:02;101249.22;;;4.41;100.00
30554;BME280;17335;50.720;7.452;2024-01-27T11:24:29;101264.19;;;4.43;100.00
30554;BME280;17335;50.720;7.452;2024-01-27T11:27:06;101262.16;;;4.50;100.00
30554;BME280;17335;50.720;7.452;2024-01-27T11:29:33;101266.50;;;4.53;100.00
30554;BME280;17335;50.720;7.452;2024-01-27T11:32:02;101271.47;;;4.62;100.00
30554;BME280;17335;50.720;7.452;2024-01-27T11:34:43;101264.53;;;4.81;100.00
30554;BME280;17335;50.720;7.452;2024-01-27T11:37:17;101255.84;;;4.76;100.00
30554;BME280;17335;50.720;7.452;2024-01-27T11:39:43;101255.41;;;4.87;100.00
30554;BME280;17335;50.720;7.452;2024-01-27T11:42:11;101259.00;;;4.86;100.00
30554;BME280;17335;50.720;7.452;2024-01-27T11:44:42;101266.13;;;5.07;100.00
30554;BME280;17335;50.720;7.452;2024-01-27T11:47:17;101255.22;;;5.14;100.00
30554;BME280;17335;50.720;7.452;2024-01-27T11:49:51;101249.28;;;5.07;100.00
30554;BME280;17335;50.720;7.452;2024-01-27T11:52:22;101246.00;;;5.00;100.00
30554;BME280;17335;50.720;7.452;2024-01-27T11:57:22;101240.88;;;4.96;100.00
30554;BME280;17335;50.720;7.452;2024-01-27T11:59:50;101226.03;;;4.90;100.00
30554;BME280;17335;50.720;7.452;2024-01-27T12:02:16;101224.34;;;4.87;100.00
30554;BME280;17335;50.720;7.452;2024-01-27T12:04:43;101229.53;;;4.91;100.00
30554;BME280;17335;50.720;7.452;2024-01-27T12:07:10;101234.19;;;5.07;100.00
30554;BME280;17335;50.720;7.452;2024-01-27T12:09:36;101229.81;;;5.27;100.00
30554;BME280;17335;50.720;7.452;2024-01-27T12:12:04;101234.31;;;5.47;100.00
30554;BME280;17335;50.720;7.452;2024-01-27T12:14:50;101235.09;;;5.49;100.00
30554;BME280;17335;50.720;7.452;2024-01-27T12:17:18;101236.97;;;5.47;100.00
30554;BME280;17335;50.720;7.452;2024-01-27T12:19:46;101238.19;;;5.60;100.00
30554;BME280;17335;50.720;7.452;2024-01-27T12:22:27;101242.69;;;5.79;100.00
30554;BME280;17335;50.720;7.452;2024-01-27T12:24:55;101245.16;;;5.83;100.00
30554;BME280;17335;50.720;7.452;2024-01-27T12:27:22;101242.25;;;5.90;100.00
30554;BME280;17335;50.720;7.452;2024-01-27T12:29:49;101245.88;;;5.87;100.00
30554;BME280;17335;50.720;7.452;2024-01-27T12:32:17;101246.69;;;5.89;100.00
30554;BME280;17335;50.720;7.452;2024-01-27T12:34:44;101254.97;;;6.04;100.00
30554;BME280;17335;50.720;7.452;2024-01-27T12:37:15;101253.25;;;6.03;100.00
30554;BME280;17335;50.720;7.452;2024-01-27T12:39:44;101248.56;;;6.08;100.00
30554;BME280;17335;50.720;7.452;2024-01-27T12:42:11;101247.78;;;6.06;100.00
30554;BME280;17335;50.720;7.452;2024-01-27T12:44:41;101243.09;;;6.11;100.00
30554;BME280;17335;50.720;7.452;2024-01-27T12:47:09;101242.81;;;6.17;100.00
30554;BME280;17335;50.720;7.452;2024-01-27T12:49:36;101229.06;;;6.26;100.00